Time;durP1;ratioP1;P1;durP2;ratioP2;P2;SDS_P1;SDS_P2;PMS_P1;PMS_P2;Temp;Humidity;BMP_temperature;BMP_pressure;BME280_temperature;BME280_humidity;BME280_pressure;Samples;Min_cycle;Max_cycle;Signal;HPM_P1;HPM_P2
2022/07/17 00:01:02;;;;;;;1.85;1.50;;;;;;;13.50;65.93;101935.75;4910376;28;20509;-66
2022/07/17 00:03:27;;;;;;;1.55;1.40;;;;;;;13.48;65.84;101937.69;4949561;28;20026;-67
2022/07/17 00:05:53;;;;;;;3.03;1.60;;;;;;;13.46;66.14;101933.47;4912862;28;20164;-67
2022/07/17 00:08:18;;;;;;;1.90;1.60;;;;;;;13.39;66.37;101933.94;4914584;28;20018;-65
2022/07/17 00:10:44;;;;;;;1.98;1.55;;;;;;;13.49;66.34;101934.03;4936605;28;20225;-68
2022/07/17 00:13:09;;;;;;;2.75;1.48;;;;;;;13.62;65.86;101933.03;4935198;28;20022;-65
2022/07/17 00:15:35;;;;;;;2.30;1.60;;;;;;;13.55;65.92;101933.56;4934170;28;20611;-67
2022/07/17 00:18:01;;;;;;;1.48;1.35;;;;;;;13.65;65.83;101944.28;4934353;28;20026;-66
2022/07/17 00:20:27;;;;;;;3.65;1.73;;;;;;;13.57;65.97;101942.22;4971753;28;20659;-67
2022/07/17 00:22:54;;;;;;;1.70;1.60;;;;;;;13.52;65.84;101940.94;4951886;28;20011;-67
2022/07/17 00:25:19;;;;;;;2.58;1.65;;;;;;;13.34;66.40;101930.81;4939520;28;20966;-69
2022/07/17 00:27:45;;;;;;;1.70;1.60;;;;;;;13.44;66.34;101928.28;4972051;28;20057;-67
2022/07/17 00:30:10;;;;;;;2.95;1.75;;;;;;;13.42;65.99;101932.84;4956957;28;20032;-67
2022/07/17 00:32:36;;;;;;;4.18;1.52;;;;;;;13.34;66.22;101930.81;4955547;28;20030;-68
2022/07/17 00:35:01;;;;;;;3.88;1.73;;;;;;;13.23;66.74;101922.88;4956355;28;20029;-67
2022/07/17 00:37:27;;;;;;;2.30;1.60;;;;;;;13.22;66.83;101926.50;4953418;28;20010;-67
2022/07/17 00:39:54;;;;;;;1.45;1.40;;;;;;;13.21;66.87;101924.78;4974733;28;20499;-67
2022/07/17 00:42:20;;;;;;;4.47;1.70;;;;;;;13.05;67.39;101926.03;4972527;28;20053;-65
2022/07/17 00:44:45;;;;;;;3.20;1.50;;;;;;;12.95;67.73;101926.94;4970938;28;19999;-67
2022/07/17 00:47:18;;;;;;;6.20;1.95;;;;;;;12.91;67.97;101938.75;4992075;28;20517;-69
2022/07/17 00:49:45;;;;;;;4.03;1.75;;;;;;;12.94;67.81;101939.34;4987767;28;20029;-67
2022/07/17 00:52:11;;;;;;;2.40;1.50;;;;;;;12.87;67.96;101930.19;4964022;28;20088;-67
2022/07/17 00:54:37;;;;;;;1.70;1.60;;;;;;;12.82;68.38;101929.72;4969159;28;20022;-66
2022/07/17 00:57:05;;;;;;;2.33;1.80;;;;;;;12.74;68.75;101926.81;4966136;28;20037;-67
2022/07/17 00:59:31;;;;;;;1.58;1.48;;;;;;;12.68;69.02;101923.69;4965643;28;20583;-67
2022/07/17 01:01:56;;;;;;;3.53;1.55;;;;;;;12.66;69.36;101930.94;4952670;28;20953;-66
2022/07/17 01:04:22;;;;;;;4.70;1.80;;;;;;;12.66;69.35;101930.06;4974826;28;20014;-67
2022/07/17 01:06:47;;;;;;;2.17;1.60;;;;;;;12.58;69.37;101924.50;4934533;28;20002;-67
2022/07/17 01:09:12;;;;;;;1.95;1.50;;;;;;;12.49;69.58;101923.44;4956226;28;20525;-67
2022/07/17 01:11:38;;;;;;;1.52;1.42;;;;;;;12.48;69.71;101932.34;4956476;28;20113;-65
2022/07/17 01:14:03;;;;;;;2.60;1.75;;;;;;;12.41;69.67;101931.16;4950955;28;20269;-68
2022/07/17 01:16:29;;;;;;;2.08;1.50;;;;;;;12.43;69.75;101930.06;4933514;28;20470;-66
2022/07/17 01:18:54;;;;;;;4.68;1.67;;;;;;;12.46;69.69;101935.13;4984981;28;20010;-67
2022/07/17 01:21:20;;;;;;;1.83;1.73;;;;;;;12.39;70.01;101938.41;4951373;28;20014;-65
2022/07/17 01:23:45;;;;;;;1.83;1.50;;;;;;;12.30;70.20;101938.16;4968505;28;20596;-67
2022/07/17 01:26:11;;;;;;;3.15;1.70;;;;;;;12.18;70.55;101937.28;4982766;28;20677;-67
2022/07/17 01:28:36;;;;;;;2.40;1.65;;;;;;;12.25;70.69;101935.00;4986803;28;20023;-67
2022/07/17 01:31:03;;;;;;;2.95;1.80;;;;;;;12.30;70.49;101930.19;4966710;28;20014;-66
2022/07/17 01:33:28;;;;;;;1.90;1.80;;;;;;;12.37;70.22;101931.41;4949971;28;20166;-68
2022/07/17 01:35:54;;;;;;;1.70;1.60;;;;;;;12.31;70.17;101944.28;4970594;28;20942;-68
2022/07/17 01:38:19;;;;;;;3.97;2.00;;;;;;;12.25;70.40;101942.97;4969053;28;20918;-67
2022/07/17 01:40:44;;;;;;;2.42;1.73;;;;;;;12.14;70.74;101932.31;4973761;28;20129;-67
2022/07/17 01:43:10;;;;;;;2.10;1.90;;;;;;;12.10;71.01;101939.69;4962891;28;20003;-67
2022/07/17 01:45:35;;;;;;;3.20;1.50;;;;;;;12.06;71.37;101937.41;4957192;28;20007;-68
2022/07/17 01:48:01;;;;;;;2.08;1.67;;;;;;;12.00;71.41;101938.69;4963076;28;20018;-67
2022/07/17 01:50:26;;;;;;;3.42;2.10;;;;;;;11.95;71.46;101943.50;4967068;28;20837;-67
2022/07/17 01:52:52;;;;;;;3.10;1.67;;;;;;;11.85;71.80;101936.19;4963736;28;20088;-67
2022/07/17 01:55:17;;;;;;;2.30;1.73;;;;;;;11.82;72.20;101935.59;4931974;28;20045;-66
2022/07/17 01:57:42;;;;;;;3.63;2.00;;;;;;;11.79;72.39;101939.31;4930107;28;20064;-67
2022/07/17 02:00:10;;;;;;;2.22;1.60;;;;;;;11.82;72.38;101935.59;4966443;28;20018;-68
2022/07/17 02:02:36;;;;;;;3.83;1.60;;;;;;;11.77;72.51;101933.28;4948277;28;20121;-63
2022/07/17 02:05:01;;;;;;;2.00;1.80;;;;;;;11.80;72.50;101934.84;4930487;28;20018;-67
2022/07/17 02:07:27;;;;;;;2.90;1.88;;;;;;;11.73;72.79;101930.97;4948047;28;20056;-64
2022/07/17 02:09:52;;;;;;;2.03;1.80;;;;;;;11.56;73.14;101930.41;4947882;28;20187;-67
2022/07/17 02:12:17;;;;;;;2.13;1.73;;;;;;;11.64;73.29;101930.69;4949012;28;20053;-66
2022/07/17 02:14:43;;;;;;;3.42;1.65;;;;;;;11.58;73.42;101928.53;4959661;28;20022;-67
2022/07/17 02:17:08;;;;;;;1.95;1.52;;;;;;;11.61;73.48;101930.94;4941636;28;20825;-66
2022/07/17 02:19:34;;;;;;;1.80;1.42;;;;;;;11.58;73.35;101925.88;4951240;28;20060;-67
2022/07/17 02:21:59;;;;;;;2.85;1.60;;;;;;;11.57;73.71;101929.47;4934481;28;20018;-67
2022/07/17 02:24:25;;;;;;;1.80;1.70;;;;;;;11.63;73.74;101926.38;4946228;28;20276;-69
2022/07/17 02:26:50;;;;;;;3.15;1.70;;;;;;;11.62;73.86;101932.63;4981482;28;20151;-68
2022/07/17 02:29:15;;;;;;;2.13;1.70;;;;;;;11.51;74.00;101927.28;4976661;28;20045;-67
2022/07/17 02:31:41;;;;;;;1.85;1.63;;;;;;;11.49;74.09;101926.53;4978778;28;20169;-66
2022/07/17 02:34:06;;;;;;;5.93;2.08;;;;;;;11.34;74.55;101929.38;4978976;28;20239;-66
2022/07/17 02:36:32;;;;;;;1.67;1.50;;;;;;;11.45;74.63;101933.03;4981209;28;20875;-67
2022/07/17 02:38:57;;;;;;;2.35;1.85;;;;;;;11.51;74.24;101927.28;4966692;28;20452;-67
2022/07/17 02:41:23;;;;;;;2.20;1.50;;;;;;;11.56;74.26;101929.59;4981328;28;20006;-68
2022/07/17 02:43:48;;;;;;;3.40;1.90;;;;;;;11.56;74.17;101930.41;4950606;28;20017;-66
2022/07/17 02:46:13;;;;;;;4.00;1.70;;;;;;;11.64;73.80;101933.34;4972152;28;20951;-68
2022/07/17 02:48:40;;;;;;;1.58;1.40;;;;;;;11.54;74.28;101940.31;4965019;28;20014;-66
2022/07/17 02:51:06;;;;;;;3.55;1.60;;;;;;;11.52;74.26;101939.59;4951079;28;20584;-67
2022/07/17 02:53:31;;;;;;;3.10;1.70;;;;;;;11.52;74.25;101934.28;4943373;28;20041;-63
2022/07/17 02:55:57;;;;;;;1.63;1.52;;;;;;;11.48;74.31;101930.16;4949789;28;20312;-68
2022/07/17 02:58:22;;;;;;;2.45;1.60;;;;;;;11.42;74.62;101935.91;4992017;28;20117;-65
2022/07/17 03:00:48;;;;;;;1.73;1.60;;;;;;;11.40;74.56;101937.84;4986083;28;20252;-67
2022/07/17 03:03:14;;;;;;;1.55;1.40;;;;;;;11.38;74.81;101942.38;4961208;28;20504;-66
2022/07/17 03:05:39;;;;;;;1.70;1.60;;;;;;;11.26;74.79;101942.31;4971778;28;20431;-68
2022/07/17 03:08:05;;;;;;;1.70;1.60;;;;;;;11.28;75.04;101947.50;4970966;28;20033;-66
2022/07/17 03:10:30;;;;;;;1.50;1.40;;;;;;;11.20;75.51;101932.19;4984669;28;20399;-66
2022/07/17 03:12:56;;;;;;;1.55;1.45;;;;;;;11.27;75.14;101946.69;5004141;28;20515;-66
2022/07/17 03:15:21;;;;;;;2.05;1.58;;;;;;;11.23;75.40;101945.19;4989957;28;20307;-67
2022/07/17 03:17:47;;;;;;;4.15;1.90;;;;;;;11.21;75.67;101941.84;4986705;28;20025;-67
2022/07/17 03:20:12;;;;;;;3.03;1.50;;;;;;;11.21;75.41;101941.84;4992449;28;20017;-67
2022/07/17 03:22:38;;;;;;;2.53;1.65;;;;;;;11.12;75.94;101953.09;4973364;28;20056;-66
2022/07/17 03:25:03;;;;;;;1.88;1.58;;;;;;;11.06;76.18;101948.25;4987543;28;20022;-67
2022/07/17 03:27:29;;;;;;;2.30;1.60;;;;;;;11.02;76.47;101950.25;4959174;28;20021;-68
2022/07/17 03:29:54;;;;;;;1.98;1.50;;;;;;;11.03;76.17;101945.78;4971539;28;20086;-68
2022/07/17 03:32:20;;;;;;;2.67;1.52;;;;;;;10.96;76.44;101943.59;4973195;28;20866;-67
2022/07/17 03:34:45;;;;;;;2.75;1.95;;;;;;;10.91;76.62;101942.22;4954564;28;20139;-68
2022/07/17 03:37:11;;;;;;;1.42;1.40;;;;;;;10.98;76.74;101944.34;4958588;28;20572;-68
2022/07/17 03:39:36;;;;;;;2.00;1.75;;;;;;;11.03;76.87;101940.47;4956092;28;21011;-68
2022/07/17 03:42:02;;;;;;;1.35;1.33;;;;;;;11.00;77.04;101950.34;4959652;28;21124;-67
2022/07/17 03:44:27;;;;;;;1.67;1.58;;;;;;;11.03;76.28;101946.66;4973360;28;20450;-66
2022/07/17 03:46:52;;;;;;;2.97;1.60;;;;;;;11.12;76.17;101943.31;4976102;28;20857;-67
2022/07/17 03:49:18;;;;;;;2.33;1.63;;;;;;;11.14;76.13;101945.88;4959495;28;20336;-67
2022/07/17 03:51:43;;;;;;;1.48;1.38;;;;;;;11.23;75.52;101947.84;4964617;28;20978;-68
2022/07/17 03:54:09;;;;;;;3.40;1.40;;;;;;;11.20;75.90;101953.38;4959713;28;20021;-67
2022/07/17 03:56:34;;;;;;;2.10;1.42;;;;;;;11.16;75.73;101959.84;4996883;28;20029;-67
2022/07/17 03:58:59;;;;;;;3.55;1.52;;;;;;;11.11;76.05;101959.31;4995588;28;20013;-67
2022/07/17 04:01:25;;;;;;;1.65;1.52;;;;;;;11.08;76.20;101967.50;4968044;28;20085;-65
2022/07/17 04:03:50;;;;;;;1.75;1.60;;;;;;;10.99;76.37;101974.31;4989493;28;20022;-67
2022/07/17 04:06:16;;;;;;;3.13;1.67;;;;;;;11.00;76.43;101966.25;4981847;28;20022;-66
2022/07/17 04:08:41;;;;;;;1.58;1.45;;;;;;;10.98;76.71;101962.00;4983206;28;20006;-67
2022/07/17 04:11:07;;;;;;;2.63;1.85;;;;;;;10.91;76.96;101972.19;4982644;28;20013;-66
2022/07/17 04:13:32;;;;;;;2.42;1.58;;;;;;;11.01;76.89;101967.09;4977756;28;20120;-67
2022/07/17 04:15:59;;;;;;;2.17;1.65;;;;;;;11.03;76.77;101966.97;4960231;28;20930;-68
2022/07/17 04:18:32;;;;;;;1.95;1.75;;;;;;;11.08;76.96;101956.91;4957546;28;20060;-66
2022/07/17 04:21:05;;;;;;;1.80;1.60;;;;;;;11.01;76.69;101964.44;4950530;28;20200;-69
2022/07/17 04:23:31;;;;;;;1.67;1.48;;;;;;;11.02;76.67;101962.66;4980588;28;20955;-67
2022/07/17 04:25:57;;;;;;;2.22;1.60;;;;;;;11.00;76.88;101965.41;4952986;28;20025;-67
2022/07/17 04:28:22;;;;;;;2.60;1.70;;;;;;;10.98;77.15;101959.38;4970104;28;20018;-67
2022/07/17 04:30:48;;;;;;;2.42;1.83;;;;;;;11.09;77.34;101963.91;4949817;28;20018;-65
2022/07/17 04:33:13;;;;;;;1.50;1.40;;;;;;;11.13;77.44;101957.44;4971487;28;20014;-68
2022/07/17 04:35:38;;;;;;;1.90;1.40;;;;;;;11.20;77.11;101958.69;4970044;28;20120;-65
2022/07/17 04:38:05;;;;;;;2.08;1.80;;;;;;;11.31;77.26;101958.75;4980840;28;20635;-67
2022/07/17 04:40:31;;;;;;;3.65;1.70;;;;;;;11.38;77.07;101955.63;4988789;28;20528;-67
2022/07/17 04:42:56;;;;;;;1.70;1.60;;;;;;;11.39;76.96;101962.63;4987597;28;20022;-66
2022/07/17 04:45:22;;;;;;;2.03;1.27;;;;;;;11.46;76.58;101955.94;4991690;28;20020;-69
2022/07/17 04:47:47;;;;;;;1.52;1.50;;;;;;;11.52;76.52;101956.31;4963001;28;20018;-68
2022/07/17 04:50:12;;;;;;;1.50;1.40;;;;;;;11.58;76.48;101980.72;4966103;28;20017;-66
2022/07/17 04:52:38;;;;;;;1.65;1.55;;;;;;;11.66;76.21;101965.91;4962690;28;20022;-68
2022/07/17 04:55:04;;;;;;;1.75;1.48;;;;;;;11.77;76.26;101975.69;4984234;28;20106;-67
2022/07/17 04:57:29;;;;;;;1.50;1.40;;;;;;;11.78;76.13;101979.22;4963869;28;20443;-67
2022/07/17 04:59:54;;;;;;;4.00;1.50;;;;;;;11.84;76.60;101978.75;4986534;28;20030;-66
2022/07/17 05:02:20;;;;;;;1.55;1.50;;;;;;;11.91;76.25;101979.97;4952645;28;20010;-67
2022/07/17 05:04:46;;;;;;;2.05;1.60;;;;;;;11.96;76.06;101975.22;4986945;28;20568;-67
2022/07/17 05:07:12;;;;;;;2.20;1.65;;;;;;;12.12;76.23;101977.56;4950902;28;20010;-64
2022/07/17 05:09:37;;;;;;;2.13;1.58;;;;;;;12.10;75.97;101976.84;4952020;28;20068;-67
2022/07/17 05:12:03;;;;;;;2.35;1.40;;;;;;;12.33;75.25;101983.03;4967331;28;20006;-66
2022/07/17 05:14:28;;;;;;;3.13;1.65;;;;;;;12.33;75.22;101985.69;4944267;28;20014;-67
2022/07/17 05:16:53;;;;;;;1.80;1.60;;;;;;;12.48;74.68;101990.75;4956672;28;20014;-66
2022/07/17 05:19:19;;;;;;;2.67;1.50;;;;;;;12.56;74.39;101983.06;4950942;28;19999;-68
2022/07/17 05:21:44;;;;;;;1.20;1.20;;;;;;;12.71;74.00;101989.81;4949609;28;20061;-67
2022/07/17 05:24:10;;;;;;;2.42;1.42;;;;;;;12.88;72.75;102004.44;4961579;28;20022;-67
2022/07/17 05:26:36;;;;;;;1.88;1.58;;;;;;;13.07;72.63;102000.31;4952457;28;20137;-67
2022/07/17 05:29:01;;;;;;;1.73;1.27;;;;;;;13.14;72.34;101998.03;4952996;28;20397;-67
2022/07/17 05:31:26;;;;;;;2.45;1.50;;;;;;;13.28;71.81;101994.25;4969480;28;20016;-67
2022/07/17 05:33:52;;;;;;;1.55;1.35;;;;;;;13.34;71.65;102004.38;4967224;28;20839;-66
2022/07/17 05:36:17;;;;;;;1.42;1.33;;;;;;;13.43;71.96;102001.03;4969327;28;20041;-68
2022/07/17 05:38:43;;;;;;;1.98;1.25;;;;;;;13.54;71.14;102003.66;4979099;28;20075;-67
2022/07/17 05:41:08;;;;;;;2.42;1.33;;;;;;;13.67;70.61;102000.84;4986323;28;21006;-67
2022/07/17 05:43:33;;;;;;;1.95;1.30;;;;;;;13.73;69.14;101995.03;4967348;28;20764;-67
2022/07/17 05:45:59;;;;;;;2.22;1.10;;;;;;;13.87;68.85;102012.50;4983552;28;20013;-67
2022/07/17 05:48:25;;;;;;;2.13;1.30;;;;;;;13.91;68.45;102010.44;4953037;28;20399;-67
2022/07/17 05:50:50;;;;;;;3.78;1.30;;;;;;;14.08;68.24;102020.50;4985861;28;20006;-67
2022/07/17 05:53:16;;;;;;;1.23;1.10;;;;;;;14.21;68.06;102028.31;4967566;28;20042;-67
2022/07/17 05:55:41;;;;;;;1.52;1.30;;;;;;;14.29;67.26;102033.00;4964430;28;20033;-68
2022/07/17 05:58:07;;;;;;;2.25;1.20;;;;;;;14.40;68.16;102035.59;4943485;28;20037;-67
2022/07/17 06:00:32;;;;;;;2.40;1.52;;;;;;;14.54;67.24;102031.75;4990630;28;20224;-67
2022/07/17 06:02:58;;;;;;;2.55;1.35;;;;;;;14.57;67.73;102026.16;4969776;28;20065;-67
2022/07/17 06:05:23;;;;;;;4.13;1.20;;;;;;;14.65;67.59;102025.53;4973387;28;20800;-67
2022/07/17 06:07:49;;;;;;;1.95;1.27;;;;;;;14.75;66.65;102023.75;4969201;28;20030;-67
2022/07/17 06:10:14;;;;;;;1.67;1.20;;;;;;;14.81;64.99;102025.06;4969321;28;20009;-67
2022/07/17 06:12:40;;;;;;;3.63;1.40;;;;;;;14.96;65.01;102024.69;4969202;28;20018;-66
2022/07/17 06:15:05;;;;;;;1.55;1.17;;;;;;;15.02;64.50;102025.00;4982095;28;20027;-68
2022/07/17 06:17:31;;;;;;;2.58;1.30;;;;;;;15.03;63.07;102025.84;4977411;28;20026;-64
2022/07/17 06:19:56;;;;;;;2.83;1.40;;;;;;;15.10;62.84;102022.50;4970175;28;20014;-68
2022/07/17 06:22:22;;;;;;;1.77;1.25;;;;;;;15.25;62.12;102027.47;4965257;28;20439;-65
2022/07/17 06:24:47;;;;;;;2.22;1.40;;;;;;;15.30;60.83;102030.56;4988269;28;20011;-67
2022/07/17 06:27:13;;;;;;;1.77;1.17;;;;;;;15.37;60.25;102023.72;4974534;28;20017;-66
2022/07/17 06:29:38;;;;;;;1.85;1.33;;;;;;;15.54;60.47;102018.66;4992411;28;20054;-67
2022/07/17 06:32:04;;;;;;;2.33;1.50;;;;;;;15.63;60.11;102020.53;4991717;28;20268;-66
2022/07/17 06:34:30;;;;;;;2.08;1.33;;;;;;;15.73;59.81;102023.19;4966366;28;20006;-67
2022/07/17 06:36:55;;;;;;;1.45;1.30;;;;;;;15.78;59.91;102008.44;4989937;28;20059;-67
2022/07/17 06:39:20;;;;;;;1.85;1.40;;;;;;;15.91;59.65;102007.38;4952848;28;20006;-67
2022/07/17 06:41:46;;;;;;;3.15;1.40;;;;;;;16.01;58.73;102013.53;4954507;28;20394;-66
2022/07/17 06:44:11;;;;;;;3.35;1.40;;;;;;;16.08;58.15;102003.97;4970165;28;20876;-67
2022/07/17 06:46:37;;;;;;;3.88;1.55;;;;;;;16.16;58.16;102003.28;4954702;28;20020;-66
2022/07/17 06:49:02;;;;;;;2.22;1.17;;;;;;;16.21;57.44;102008.19;4973384;28;20218;-67
2022/07/17 06:51:27;;;;;;;1.85;1.30;;;;;;;16.25;57.81;102001.56;4953748;28;20116;-66
2022/07/17 06:53:53;;;;;;;2.15;1.40;;;;;;;16.24;57.83;101999.88;4967751;28;20009;-67
2022/07/17 06:56:18;;;;;;;1.95;1.30;;;;;;;16.27;57.54;101994.25;4953097;28;20918;-67
2022/07/17 06:58:44;;;;;;;2.45;1.40;;;;;;;16.33;58.03;101987.50;4967487;28;20048;-68
2022/07/17 07:01:09;;;;;;;2.03;1.27;;;;;;;16.48;57.36;101981.56;4953306;28;20001;-67
2022/07/17 07:03:35;;;;;;;1.92;1.40;;;;;;;16.55;57.42;101981.78;4968349;28;20021;-68
2022/07/17 07:06:01;;;;;;;1.48;1.30;;;;;;;16.69;56.79;101993.03;4954012;28;21005;-67
2022/07/17 07:08:26;;;;;;;1.40;1.30;;;;;;;16.85;56.01;101997.72;4964259;28;20018;-68
2022/07/17 07:10:52;;;;;;;1.88;1.40;;;;;;;17.05;55.43;102002.03;4963415;28;20459;-68
2022/07/17 07:13:17;;;;;;;1.77;1.20;;;;;;;17.30;56.63;101992.47;4953942;28;20031;-68
2022/07/17 07:15:42;;;;;;;2.60;1.15;;;;;;;17.46;54.81;102002.50;4980681;28;20658;-68
2022/07/17 07:18:08;;;;;;;1.42;1.33;;;;;;;17.75;55.87;102001.41;4972515;28;20013;-68
2022/07/17 07:20:34;;;;;;;1.95;1.30;;;;;;;17.91;53.75;102005.28;4963508;28;20428;-68
2022/07/17 07:22:59;;;;;;;1.55;1.13;;;;;;;17.86;53.26;101998.50;4946295;28;20063;-65
2022/07/17 07:25:24;;;;;;;1.48;1.27;;;;;;;17.97;53.08;101999.31;4990703;28;20942;-66
2022/07/17 07:27:50;;;;;;;1.05;1.00;;;;;;;18.24;52.63;102000.19;4963029;28;20083;-66
2022/07/17 07:30:15;;;;;;;1.20;0.98;;;;;;;18.02;50.93;101997.00;4969663;28;20388;-68
2022/07/17 07:32:41;;;;;;;1.00;1.00;;;;;;;17.97;50.40;101994.78;4954559;28;20026;-66
2022/07/17 07:35:07;;;;;;;1.40;1.20;;;;;;;17.93;50.44;101981.88;4952501;28;20034;-68
2022/07/17 07:37:32;;;;;;;3.83;1.08;;;;;;;18.11;51.06;101977.31;4939382;28;20010;-68
2022/07/17 07:39:59;;;;;;;1.55;1.08;;;;;;;18.19;50.22;101979.22;4958017;28;20495;-68
2022/07/17 07:42:24;;;;;;;2.45;1.20;;;;;;;18.35;50.98;101982.00;4968720;28;20014;-67
2022/07/17 07:44:49;;;;;;;1.15;1.00;;;;;;;18.51;50.99;101965.19;4982498;28;20022;-67
2022/07/17 07:47:15;;;;;;;2.25;1.20;;;;;;;18.63;49.89;101978.31;4953263;28;20389;-68
2022/07/17 07:49:40;;;;;;;1.75;0.93;;;;;;;18.49;49.42;101988.63;4955913;28;20037;-67
2022/07/17 07:52:06;;;;;;;2.72;0.98;;;;;;;18.49;49.32;101990.47;4990481;28;20368;-68
2022/07/17 07:54:32;;;;;;;1.50;1.20;;;;;;;18.59;49.22;101993.03;4937473;28;20032;-68
2022/07/17 07:56:57;;;;;;;1.42;1.08;;;;;;;18.78;51.41;101987.44;4961758;28;20381;-68
2022/07/17 07:59:22;;;;;;;1.70;1.10;;;;;;;18.86;49.54;101984.78;4966780;28;20049;-65
2022/07/17 08:01:48;;;;;;;2.88;2.63;;;;;;;19.00;48.91;101987.91;4951651;28;20014;-68
2022/07/17 08:04:14;;;;;;;1.92;1.10;;;;;;;19.02;48.15;101993.94;4961330;28;20064;-68
2022/07/17 08:06:39;;;;;;;2.20;1.20;;;;;;;19.14;47.56;102003.38;4959167;28;20076;-68
2022/07/17 08:09:05;;;;;;;3.00;2.22;;;;;;;19.20;47.10;101997.34;4959778;28;20014;-67
2022/07/17 08:11:30;;;;;;;2.92;1.60;;;;;;;19.30;47.57;102007.09;4951573;28;20091;-68
2022/07/17 08:13:56;;;;;;;2.28;1.38;;;;;;;19.33;47.88;102007.63;4955504;28;20714;-68
2022/07/17 08:16:21;;;;;;;1.98;1.13;;;;;;;19.41;47.72;102009.47;4952461;28;21005;-67
2022/07/17 08:18:47;;;;;;;2.15;1.17;;;;;;;19.51;48.72;102010.16;4974609;28;20010;-67
2022/07/17 08:21:12;;;;;;;3.80;0.90;;;;;;;19.50;46.14;102016.56;4969387;28;20044;-67
2022/07/17 08:23:37;;;;;;;3.85;1.00;;;;;;;19.49;47.63;102017.56;4956907;28;20042;-67
2022/07/17 08:26:03;;;;;;;2.25;1.30;;;;;;;19.67;48.03;102020.13;4984192;28;20388;-68
2022/07/17 08:28:28;;;;;;;3.90;1.00;;;;;;;19.86;49.03;102012.78;4990385;28;20022;-67
2022/07/17 08:30:54;;;;;;;1.35;0.85;;;;;;;19.98;46.73;102015.94;4985582;28;20076;-67
2022/07/17 08:33:19;;;;;;;1.65;1.08;;;;;;;20.06;46.82;102021.31;4980380;28;20448;-68
2022/07/17 08:35:44;;;;;;;1.48;0.98;;;;;;;20.11;46.10;102013.59;4972192;28;20034;-68
2022/07/17 08:38:10;;;;;;;1.58;0.85;;;;;;;20.21;44.99;102010.75;4990373;28;20675;-68
2022/07/17 08:40:36;;;;;;;2.70;1.10;;;;;;;20.28;46.01;102017.13;4982172;28;20036;-68
2022/07/17 08:43:03;;;;;;;1.98;1.20;;;;;;;20.48;46.97;102014.91;4955484;28;20629;-68
2022/07/17 08:45:29;;;;;;;4.05;1.00;;;;;;;20.63;46.50;102015.03;4955572;28;20137;-68
2022/07/17 08:47:55;;;;;;;2.38;1.10;;;;;;;20.71;44.01;102030.34;4967143;28;20079;-68
2022/07/17 08:50:23;;;;;;;2.03;0.85;;;;;;;20.68;43.78;102026.13;4973411;28;20659;-70
2022/07/17 08:52:48;;;;;;;1.52;0.95;;;;;;;20.82;43.13;102015.69;4991145;28;20224;-69
2022/07/17 08:55:14;;;;;;;1.33;0.98;;;;;;;20.67;42.05;102026.28;4964464;28;20026;-69
2022/07/17 08:57:41;;;;;;;1.10;0.90;;;;;;;20.86;44.00;102025.91;4994690;28;20298;-69
2022/07/17 09:00:10;;;;;;;1.02;0.90;;;;;;;21.12;41.30;102027.47;4996928;28;20037;-69
2022/07/17 09:02:35;;;;;;;2.25;1.20;;;;;;;21.08;41.28;102027.00;4964036;28;20037;-68
2022/07/17 09:05:01;;;;;;;1.85;1.08;;;;;;;21.03;41.28;102026.69;5006735;28;20021;-68
2022/07/17 09:07:26;;;;;;;3.03;1.23;;;;;;;21.13;41.46;102031.88;4988350;28;20960;-69
2022/07/17 09:09:52;;;;;;;2.33;0.90;;;;;;;21.26;40.95;102023.22;4988629;28;20029;-68
2022/07/17 09:12:17;;;;;;;3.28;1.20;;;;;;;21.40;41.19;102022.47;4991699;28;20494;-68
2022/07/17 09:14:43;;;;;;;2.95;1.30;;;;;;;21.74;42.18;102012.34;4953142;28;20022;-69
2022/07/17 09:17:09;;;;;;;1.48;1.10;;;;;;;21.93;41.79;102000.25;4954664;28;20309;-68
2022/07/17 09:19:37;;;;;;;1.45;1.00;;;;;;;22.18;41.83;102008.94;4971622;28;20099;-67
2022/07/17 09:22:18;;;;;;;0.70;0.70;;;;;;;22.51;42.27;101997.03;4953201;28;20030;-67
2022/07/17 09:24:48;;;;;;;1.45;1.00;;;;;;;22.55;40.72;101999.16;4954709;28;20392;-69
2022/07/17 09:27:27;;;;;;;2.45;1.10;;;;;;;22.81;41.09;102000.53;4968719;28;20038;-65
2022/07/17 09:30:18;;;;;;;2.17;1.20;;;;;;;22.95;38.77;101991.56;4952410;28;20259;-68
2022/07/17 09:32:44;;;;;;;2.03;1.00;;;;;;;23.13;39.32;101991.22;4944126;28;20022;-69
2022/07/17 09:35:10;;;;;;;2.30;0.93;;;;;;;23.33;39.05;102004.94;4967670;28;20465;-69
2022/07/17 09:37:35;;;;;;;2.60;1.23;;;;;;;23.44;37.97;102002.78;4949661;28;20088;-67
2022/07/17 09:40:01;;;;;;;1.58;1.10;;;;;;;23.75;40.31;102001.63;4965874;28;20018;-69
2022/07/17 09:42:29;;;;;;;2.25;0.82;;;;;;;23.99;37.76;102003.09;4951399;28;20113;-67
2022/07/17 09:45:04;;;;;;;1.15;0.90;;;;;;;24.20;37.16;102002.22;4949494;28;20010;-67
2022/07/17 09:47:31;;;;;;;1.33;1.20;;;;;;;24.28;36.13;102010.19;4964519;28;20034;-67
2022/07/17 09:49:57;;;;;;;1.70;0.82;;;;;;;24.66;35.66;102001.72;4968794;28;20024;-69
2022/07/17 09:52:24;;;;;;;6.88;1.27;;;;;;;24.91;35.31;102005.78;4972257;28;20285;-69
2022/07/17 09:54:49;;;;;;;5.72;1.10;;;;;;;24.68;33.92;101994.22;4942948;28;20028;-69
2022/07/17 09:57:14;;;;;;;1.83;1.10;;;;;;;24.92;36.28;101993.94;4949867;28;20336;-69
2022/07/17 09:59:41;;;;;;;1.45;1.23;;;;;;;25.15;35.25;101996.28;4950028;28;20010;-68
2022/07/17 10:02:06;;;;;;;2.53;1.10;;;;;;;25.45;36.81;101999.50;4947858;28;20314;-69
2022/07/17 10:04:32;;;;;;;1.10;0.75;;;;;;;25.78;35.85;101992.47;4967636;28;20988;-70
2022/07/17 10:06:58;;;;;;;1.58;1.20;;;;;;;26.20;34.66;102001.22;4935864;28;20467;-69
2022/07/17 10:09:23;;;;;;;2.85;1.10;;;;;;;26.17;33.65;102001.66;4957962;28;20455;-69
2022/07/17 10:11:48;;;;;;;2.58;1.05;;;;;;;26.12;33.40;101994.16;4934337;28;20123;-69
2022/07/17 10:14:14;;;;;;;2.15;1.10;;;;;;;25.82;34.17;101996.41;4939822;28;20370;-69
2022/07/17 10:16:40;;;;;;;2.20;0.93;;;;;;;25.95;33.69;101993.72;4954106;28;20069;-66
2022/07/17 10:19:18;;;;;;;2.00;1.00;;;;;;;26.52;34.14;101993.25;4971828;28;20334;-69
2022/07/17 10:21:57;;;;;;;2.50;0.85;;;;;;;26.82;31.46;101999.03;4950968;28;20435;-67
2022/07/17 10:24:23;;;;;;;2.40;0.90;;;;;;;27.31;30.57;101999.41;4955931;28;20386;-68
2022/07/17 10:26:49;;;;;;;1.77;0.90;;;;;;;27.39;30.62;101999.19;4942969;28;20074;-66
2022/07/17 10:29:39;;;;;;;2.10;0.90;;;;;;;27.48;30.11;101996.22;4981648;28;20056;-69
2022/07/17 10:32:09;;;;;;;4.90;1.63;;;;;;;27.60;29.80;101994.44;4985279;28;19986;-70
2022/07/17 10:35:07;;;;;;;1.70;1.40;;;;;;;27.85;27.37;101990.91;4951093;28;20447;-66
2022/07/17 10:37:39;;;;;;;2.60;1.05;;;;;;;28.19;29.88;101997.75;4933257;28;20850;-68
2022/07/17 10:40:16;;;;;;;1.10;0.90;;;;;;;28.01;27.28;101995.81;4924917;28;19999;-69
2022/07/17 10:42:58;;;;;;;1.10;0.90;;;;;;;27.62;26.81;101995.06;4945101;28;20027;-67
2022/07/17 10:45:44;;;;;;;1.80;0.80;;;;;;;27.69;27.06;101995.84;4930391;28;20027;-67
2022/07/17 10:48:11;;;;;;;2.95;1.00;;;;;;;27.52;27.73;101992.00;4940930;28;20133;-69
2022/07/17 10:50:40;;;;;;;2.38;1.02;;;;;;;27.86;27.41;101998.00;4961947;28;20033;-69
2022/07/17 10:53:16;;;;;;;0.80;0.80;;;;;;;27.94;28.11;101986.84;4948190;28;20129;-69
2022/07/17 10:55:44;;;;;;;3.10;1.05;;;;;;;28.08;26.01;101993.84;4946848;28;20244;-69
2022/07/17 10:58:30;;;;;;;1.92;0.70;;;;;;;28.15;27.42;101996.53;4949090;28;20366;-69
2022/07/17 11:01:15;;;;;;;1.75;0.75;;;;;;;28.97;28.84;101992.69;4947428;28;20018;-67
2022/07/17 11:03:51;;;;;;;1.10;0.80;;;;;;;29.38;29.01;102009.34;4933056;28;20026;-69
2022/07/17 11:06:25;;;;;;;1.77;0.90;;;;;;;28.92;26.77;102000.72;4946224;28;20339;-69
2022/07/17 11:08:52;;;;;;;0.60;0.60;;;;;;;28.44;29.48;101999.56;4949905;28;20270;-68
2022/07/17 11:11:21;;;;;;;0.80;0.80;;;;;;;28.96;27.66;101993.75;4930147;28;20033;-65
2022/07/17 11:13:46;;;;;;;3.42;1.00;;;;;;;29.24;27.86;102003.25;4949604;28;20027;-68
2022/07/17 11:16:12;;;;;;;0.90;0.90;;;;;;;29.37;28.31;101996.78;4920446;28;20319;-68
2022/07/17 11:18:45;;;;;;;1.25;0.93;;;;;;;28.95;28.64;101997.53;4927443;28;20023;-68
2022/07/17 11:21:10;;;;;;;2.05;1.10;;;;;;;28.90;28.23;101998.22;4924916;28;20026;-69